createdAt,value
2023-02-12T00:00:46.692Z,100.00
2023-02-12T00:03:39.492Z,100.00
2023-02-12T00:06:15.921Z,100.00
2023-02-12T00:08:52.335Z,100.00
2023-02-12T00:11:28.807Z,100.00
2023-02-12T00:14:03.224Z,100.00
2023-02-12T00:16:36.255Z,100.00
2023-02-12T00:19:08.441Z,100.00
2023-02-12T00:21:40.720Z,100.00
2023-02-12T00:24:12.974Z,100.00
2023-02-12T00:26:45.267Z,100.00
2023-02-12T00:29:17.767Z,100.00
2023-02-12T00:31:50.080Z,100.00
2023-02-12T00:34:22.411Z,100.00
2023-02-12T00:36:54.660Z,100.00
2023-02-12T00:39:26.889Z,100.00
2023-02-12T00:41:59.075Z,100.00
2023-02-12T00:44:31.743Z,100.00
2023-02-12T00:47:07.268Z,100.00
2023-02-12T00:49:41.505Z,100.00
2023-02-12T00:52:13.804Z,100.00
2023-02-12T00:54:46.204Z,100.00
2023-02-12T00:57:19.777Z,100.00
2023-02-12T00:59:52.560Z,100.00
2023-02-12T01:02:26.416Z,100.00
2023-02-12T01:04:59.108Z,100.00
2023-02-12T01:07:31.447Z,100.00
2023-02-12T01:10:03.908Z,100.00
2023-02-12T01:12:36.253Z,100.00
2023-02-12T01:15:10.534Z,100.00
2023-02-12T01:17:43.136Z,100.00
2023-02-12T01:20:21.148Z,100.00
2023-02-12T01:22:54.841Z,100.00
2023-02-12T01:25:27.221Z,100.00
2023-02-12T01:28:02.473Z,100.00
2023-02-12T01:30:34.966Z,100.00
2023-02-12T01:33:07.342Z,100.00
2023-02-12T01:35:40.272Z,100.00
2023-02-12T01:38:12.691Z,100.00
2023-02-12T01:40:45.697Z,100.00
2023-02-12T01:43:18.306Z,100.00
2023-02-12T01:45:56.395Z,100.00
2023-02-12T01:48:32.642Z,100.00
2023-02-12T01:51:11.219Z,100.00
2023-02-12T01:53:48.559Z,100.00
2023-02-12T01:56:21.507Z,100.00
2023-02-12T01:58:55.722Z,100.00
2023-02-12T02:01:32.304Z,100.00
2023-02-12T02:04:10.147Z,100.00
2023-02-12T02:06:49.434Z,100.00
2023-02-12T02:09:22.391Z,100.00
2023-02-12T02:12:12.790Z,100.00
2023-02-12T02:14:46.420Z,100.00
2023-02-12T02:17:42.962Z,100.00
2023-02-12T02:21:04.864Z,100.00
2023-02-12T02:24:22.576Z,100.00
2023-02-12T02:27:14.264Z,100.00
2023-02-12T02:29:58.158Z,100.00
2023-02-12T02:32:33.829Z,100.00
2023-02-12T02:35:16.910Z,100.00
2023-02-12T02:37:57.926Z,100.00
2023-02-12T02:40:40.227Z,100.00
2023-02-12T02:43:17.441Z,100.00
2023-02-12T02:45:54.422Z,100.00
2023-02-12T02:48:33.488Z,100.00
2023-02-12T02:51:09.819Z,100.00
2023-02-12T02:53:46.559Z,100.00
2023-02-12T02:56:21.353Z,100.00
2023-02-12T02:59:00.629Z,100.00
2023-02-12T03:01:37.862Z,100.00
2023-02-12T03:04:13.465Z,100.00
2023-02-12T03:06:51.952Z,100.00
2023-02-12T03:09:30.247Z,100.00
2023-02-12T03:12:07.767Z,100.00
2023-02-12T03:14:46.872Z,100.00
2023-02-12T03:17:23.584Z,100.00
2023-02-12T03:20:01.652Z,100.00
2023-02-12T03:22:37.603Z,100.00
2023-02-12T03:25:16.344Z,100.00
2023-02-12T03:27:54.322Z,100.00
2023-02-12T03:30:30.630Z,100.00
2023-02-12T03:33:12.025Z,100.00
2023-02-12T03:35:54.797Z,100.00
2023-02-12T03:38:35.872Z,100.00
2023-02-12T03:41:13.802Z,100.00
2023-02-12T03:43:53.810Z,100.00
2023-02-12T03:46:32.646Z,100.00
2023-02-12T03:49:11.763Z,100.00
2023-02-12T03:51:46.258Z,100.00
2023-02-12T03:54:20.924Z,100.00
2023-02-12T03:56:57.336Z,100.00
2023-02-12T03:59:30.396Z,100.00
2023-02-12T04:02:02.852Z,100.00
2023-02-12T04:04:36.208Z,100.00
2023-02-12T04:07:08.839Z,100.00
2023-02-12T04:09:41.555Z,100.00
2023-02-12T04:12:35.455Z,100.00
2023-02-12T04:15:24.828Z,100.00
2023-02-12T04:18:07.360Z,100.00
2023-02-12T04:20:50.055Z,100.00
2023-02-12T04:23:38.445Z,100.00
2023-02-12T04:26:18.755Z,100.00
2023-02-12T04:28:59.619Z,100.00
2023-02-12T04:31:35.536Z,100.00
2023-02-12T04:34:15.811Z,100.00
2023-02-12T04:36:58.580Z,100.00
2023-02-12T04:39:35.247Z,100.00
2023-02-12T04:42:08.859Z,100.00
2023-02-12T04:44:45.555Z,100.00
2023-02-12T04:47:18.723Z,100.00
2023-02-12T04:49:51.131Z,100.00
2023-02-12T04:52:23.352Z,100.00
2023-02-12T04:54:56.135Z,100.00
2023-02-12T04:57:28.592Z,100.00
2023-02-12T05:00:01.132Z,100.00
2023-02-12T05:02:34.287Z,100.00
2023-02-12T05:05:07.398Z,100.00
2023-02-12T05:07:39.707Z,100.00
2023-02-12T05:10:13.349Z,100.00
2023-02-12T05:12:45.606Z,100.00
2023-02-12T05:15:20.397Z,100.00
2023-02-12T05:17:52.738Z,100.00
2023-02-12T05:20:25.444Z,100.00
2023-02-12T05:22:58.097Z,100.00
2023-02-12T05:25:32.459Z,100.00
2023-02-12T05:28:05.013Z,100.00
2023-02-12T05:30:37.387Z,100.00
2023-02-12T05:33:12.287Z,100.00
2023-02-12T05:35:44.627Z,100.00
2023-02-12T05:38:18.277Z,100.00
2023-02-12T05:40:50.608Z,100.00
2023-02-12T05:43:26.344Z,100.00
2023-02-12T05:46:02.043Z,100.00
2023-02-12T05:48:35.318Z,100.00
2023-02-12T05:51:10.199Z,100.00
2023-02-12T05:53:43.396Z,100.00
2023-02-12T05:56:18.448Z,100.00
2023-02-12T05:58:53.896Z,100.00
2023-02-12T06:01:28.869Z,100.00
2023-02-12T06:04:08.843Z,100.00
2023-02-12T06:06:42.325Z,100.00
2023-02-12T06:09:15.787Z,100.00
2023-02-12T06:11:48.806Z,100.00
2023-02-12T06:14:22.544Z,100.00
2023-02-12T06:16:55.287Z,100.00
2023-02-12T06:19:28.003Z,100.00
2023-02-12T06:22:00.296Z,100.00
2023-02-12T06:24:32.667Z,100.00
2023-02-12T06:27:05.843Z,100.00
2023-02-12T06:29:38.036Z,100.00
2023-02-12T06:32:13.704Z,100.00
2023-02-12T06:34:45.984Z,100.00
2023-02-12T06:37:18.299Z,100.00
2023-02-12T06:39:50.953Z,100.00
2023-02-12T06:42:23.566Z,100.00
2023-02-12T06:44:55.773Z,100.00
2023-02-12T06:47:28.062Z,100.00
2023-02-12T06:50:00.366Z,100.00
2023-02-12T06:52:32.688Z,100.00
2023-02-12T06:55:05.039Z,100.00
2023-02-12T06:57:37.233Z,100.00
2023-02-12T07:00:12.165Z,100.00
2023-02-12T07:02:44.350Z,100.00
2023-02-12T07:05:16.787Z,100.00
2023-02-12T07:07:49.150Z,100.00
2023-02-12T07:10:23.525Z,100.00
2023-02-12T07:12:55.743Z,100.00
2023-02-12T07:15:27.917Z,100.00
2023-02-12T07:18:00.229Z,100.00
2023-02-12T07:20:32.412Z,100.00
2023-02-12T07:23:04.746Z,100.00
2023-02-12T07:25:37.033Z,100.00
2023-02-12T07:28:09.367Z,100.00
2023-02-12T07:30:42.779Z,99.99
2023-02-12T07:33:17.411Z,100.00
2023-02-12T07:35:49.701Z,99.81
2023-02-12T07:38:22.034Z,99.90
2023-02-12T07:40:54.254Z,99.96
2023-02-12T07:43:26.502Z,99.96
2023-02-12T07:46:06.669Z,99.87
2023-02-12T07:48:39.016Z,99.74
2023-02-12T07:51:13.592Z,99.77
2023-02-12T07:53:46.018Z,99.67
2023-02-12T07:56:21.668Z,99.57
2023-02-12T07:58:55.007Z,99.72
2023-02-12T08:01:29.245Z,99.82
2023-02-12T08:04:03.696Z,99.92
2023-02-12T08:06:38.989Z,99.78
2023-02-12T08:09:14.356Z,99.28
2023-02-12T08:11:47.372Z,99.28
2023-02-12T08:14:22.585Z,99.20
2023-02-12T08:16:55.300Z,99.30
2023-02-12T08:19:27.675Z,99.06
2023-02-12T08:22:02.463Z,98.75
2023-02-12T08:24:36.082Z,99.07
2023-02-12T08:27:08.286Z,99.12
2023-02-12T08:29:40.705Z,99.31
2023-02-12T08:32:14.458Z,99.27
2023-02-12T08:34:46.720Z,99.16
2023-02-12T08:37:22.491Z,98.92
2023-02-12T08:39:54.865Z,98.77
2023-02-12T08:42:28.162Z,98.29
2023-02-12T08:45:00.407Z,98.08
2023-02-12T08:47:32.658Z,98.25
2023-02-12T08:50:05.028Z,98.18
2023-02-12T08:52:38.755Z,98.24
2023-02-12T08:55:11.487Z,98.17
2023-02-12T08:57:44.854Z,98.23
2023-02-12T09:00:18.559Z,97.83
2023-02-12T09:02:52.650Z,97.65
2023-02-12T09:05:25.035Z,97.64
2023-02-12T09:08:00.161Z,97.64
2023-02-12T09:10:32.616Z,97.20
2023-02-12T09:13:04.732Z,96.48
2023-02-12T09:15:39.455Z,96.46
2023-02-12T09:18:12.062Z,96.43
2023-02-12T09:20:46.556Z,96.26
2023-02-12T09:23:18.901Z,95.96
2023-02-12T09:25:53.747Z,96.10
2023-02-12T09:28:26.671Z,96.25
2023-02-12T09:30:59.044Z,96.47
2023-02-12T09:33:31.426Z,99.29
2023-02-12T09:36:11.125Z,99.85
2023-02-12T09:38:44.075Z,94.75
2023-02-12T09:41:48.974Z,96.07
2023-02-12T09:44:28.638Z,94.12
2023-02-12T09:47:04.989Z,91.80
2023-02-12T09:49:57.385Z,89.58
2023-02-12T09:52:31.907Z,84.94
2023-02-12T09:55:04.940Z,83.30
2023-02-12T09:57:39.384Z,85.14
2023-02-12T10:00:16.898Z,85.00
2023-02-12T10:02:51.988Z,83.85
2023-02-12T10:05:28.694Z,82.10
2023-02-12T10:08:24.601Z,81.08
2023-02-12T10:11:02.090Z,78.98
2023-02-12T10:13:42.518Z,80.67
2023-02-12T10:16:22.387Z,80.29
2023-02-12T10:19:06.852Z,77.85
2023-02-12T10:21:51.202Z,77.13
2023-02-12T10:24:45.505Z,76.88
2023-02-12T10:27:19.227Z,75.93
2023-02-12T10:29:53.242Z,75.09
2023-02-12T10:32:29.603Z,73.28
2023-02-12T10:35:03.601Z,69.16
2023-02-12T10:37:41.976Z,71.00
2023-02-12T10:40:22.495Z,68.74
2023-02-12T10:42:55.571Z,68.79
2023-02-12T10:45:31.395Z,69.03
2023-02-12T10:48:12.505Z,68.48
2023-02-12T10:51:05.147Z,66.52
2023-02-12T10:53:39.369Z,65.34
2023-02-12T10:56:18.512Z,64.28
2023-02-12T10:58:59.438Z,61.22
2023-02-12T11:01:34.512Z,61.55
2023-02-12T11:04:28.649Z,60.89
2023-02-12T11:07:03.658Z,59.18
2023-02-12T11:09:40.811Z,60.10
2023-02-12T11:12:27.530Z,58.83
2023-02-12T11:15:01.803Z,58.21
2023-02-12T11:17:38.692Z,55.79
2023-02-12T11:20:30.752Z,53.91
2023-02-12T11:23:06.436Z,52.86
2023-02-12T11:25:56.013Z,51.98
2023-02-12T11:28:28.773Z,50.76
2023-02-12T11:31:04.577Z,47.86
2023-02-12T11:33:39.214Z,45.59
2023-02-12T11:36:22.155Z,48.23
2023-02-12T11:38:57.416Z,49.98
2023-02-12T11:41:36.602Z,48.74
2023-02-12T11:44:14.623Z,47.97
2023-02-12T11:46:52.613Z,48.07
2023-02-12T11:49:34.428Z,48.27
2023-02-12T11:52:08.037Z,48.22
2023-02-12T11:54:50.323Z,48.58
2023-02-12T11:57:40.821Z,48.83
2023-02-12T12:00:16.974Z,48.70
2023-02-12T12:03:01.934Z,49.01
2023-02-12T12:05:40.077Z,48.99
2023-02-12T12:08:21.243Z,49.02
2023-02-12T12:10:59.879Z,49.64
2023-02-12T12:13:38.647Z,49.35
2023-02-12T12:16:33.100Z,48.45
2023-02-12T12:19:30.090Z,48.75
2023-02-12T12:22:09.797Z,49.05
2023-02-12T12:24:49.074Z,49.62
2023-02-12T12:30:42.562Z,49.60
2023-02-12T12:33:24.925Z,49.88
2023-02-12T12:36:08.581Z,50.29
2023-02-12T12:38:53.657Z,50.13
2023-02-12T12:41:33.953Z,49.92
2023-02-12T12:44:21.865Z,50.13
2023-02-12T12:47:06.472Z,50.18
2023-02-12T12:50:03.401Z,51.33
2023-02-12T12:53:10.829Z,51.67
2023-02-12T12:56:08.707Z,52.07
2023-02-12T12:58:52.402Z,51.96
2023-02-12T13:01:45.901Z,51.29
2023-02-12T13:04:50.260Z,51.22
2023-02-12T13:07:33.924Z,52.38
2023-02-12T13:10:24.373Z,52.53
2023-02-12T13:13:19.583Z,53.09
2023-02-12T13:16:02.673Z,53.65
2023-02-12T13:18:46.980Z,54.06
2023-02-12T13:21:33.560Z,54.46
2023-02-12T13:24:12.729Z,54.68
2023-02-12T13:26:53.925Z,55.00
2023-02-12T13:29:31.135Z,55.15
2023-02-12T13:32:07.465Z,55.23
2023-02-12T13:34:44.403Z,55.26
2023-02-12T13:37:21.739Z,55.85
2023-02-12T13:39:59.635Z,56.31
2023-02-12T13:42:44.987Z,56.64
2023-02-12T13:45:28.840Z,57.84
2023-02-12T13:48:19.883Z,57.99
2023-02-12T13:51:01.272Z,58.13
2023-02-12T13:53:47.101Z,59.21
2023-02-12T13:56:33.712Z,59.65
2023-02-12T13:59:26.051Z,60.25
2023-02-12T14:01:58.826Z,60.53
2023-02-12T14:04:36.627Z,60.91
2023-02-12T14:07:12.813Z,61.32
2023-02-12T14:09:47.650Z,61.59
2023-02-12T14:12:35.518Z,61.74
2023-02-12T14:15:21.840Z,62.18
2023-02-12T14:18:05.328Z,62.49
2023-02-12T14:20:40.244Z,63.02
2023-02-12T14:23:32.054Z,63.26
2023-02-12T14:26:10.892Z,63.48
2023-02-12T14:28:52.702Z,63.75
2023-02-12T14:31:34.589Z,64.22
2023-02-12T14:34:43.817Z,64.40
2023-02-12T14:37:44.173Z,64.31
2023-02-12T14:40:47.208Z,64.85
2023-02-12T14:43:55.906Z,65.46
2023-02-12T14:46:48.924Z,65.38
2023-02-12T14:49:27.044Z,66.03
2023-02-12T14:52:05.054Z,66.35
2023-02-12T14:54:42.422Z,66.51
2023-02-12T14:57:23.913Z,66.43
2023-02-12T14:59:59.093Z,66.38
2023-02-12T15:02:34.347Z,66.64
2023-02-12T15:05:14.932Z,66.64
2023-02-12T15:07:55.690Z,66.83
2023-02-12T15:10:33.878Z,66.88
2023-02-12T15:13:25.473Z,67.10
2023-02-12T15:16:02.906Z,67.55
2023-02-12T15:18:51.799Z,67.44
2023-02-12T15:21:29.636Z,67.63
2023-02-12T15:24:05.146Z,67.89
2023-02-12T15:26:41.780Z,68.09
2023-02-12T15:29:28.306Z,68.08
2023-02-12T15:32:03.843Z,68.33
2023-02-12T15:34:39.077Z,68.25
2023-02-12T15:37:20.306Z,68.11
2023-02-12T15:39:56.074Z,68.33
2023-02-12T15:42:32.982Z,68.65
2023-02-12T15:45:29.567Z,68.91
2023-02-12T15:48:12.372Z,68.73
2023-02-12T15:50:58.695Z,68.73
2023-02-12T15:53:32.275Z,68.94
2023-02-12T15:56:05.688Z,68.92
2023-02-12T15:58:43.772Z,68.93
2023-02-12T16:01:21.502Z,69.01
2023-02-12T16:03:55.630Z,68.92
2023-02-12T16:06:29.665Z,69.02
2023-02-12T16:09:07.564Z,69.19
2023-02-12T16:11:40.596Z,69.19
2023-02-12T16:14:24.507Z,69.28
2023-02-12T16:16:59.399Z,69.63
2023-02-12T16:19:33.787Z,69.92
2023-02-12T16:22:11.486Z,69.76
2023-02-12T16:24:50.508Z,70.01
2023-02-12T16:27:24.509Z,70.19
2023-02-12T16:29:59.215Z,70.39
2023-02-12T16:32:37.656Z,70.59
2023-02-12T16:35:28.408Z,70.67
2023-02-12T16:38:27.790Z,70.90
2023-02-12T16:41:21.161Z,71.06
2023-02-12T16:44:11.788Z,71.28
2023-02-12T16:46:47.998Z,71.38
2023-02-12T16:49:22.407Z,71.69
2023-02-12T16:51:56.757Z,72.05
2023-02-12T16:54:32.083Z,72.22
2023-02-12T16:57:04.665Z,72.12
2023-02-12T16:59:43.323Z,72.37
2023-02-12T17:02:16.736Z,72.45
2023-02-12T17:04:49.258Z,72.61
2023-02-12T17:07:25.818Z,73.22
2023-02-12T17:09:58.032Z,73.15
2023-02-12T17:12:30.532Z,72.99
2023-02-12T17:15:07.776Z,73.35
2023-02-12T17:17:40.009Z,73.59
2023-02-12T17:20:14.229Z,73.73
2023-02-12T17:22:51.502Z,73.96
2023-02-12T17:25:23.737Z,74.13
2023-02-12T17:27:55.959Z,74.40
2023-02-12T17:30:32.448Z,74.23
2023-02-12T17:33:04.792Z,74.28
2023-02-12T17:35:38.294Z,74.37
2023-02-12T17:38:10.864Z,74.62
2023-02-12T17:40:43.186Z,74.78
2023-02-12T17:43:16.165Z,75.20
2023-02-12T17:45:48.520Z,75.08
2023-02-12T17:48:23.497Z,74.75
2023-02-12T17:50:58.471Z,74.80
2023-02-12T17:53:30.929Z,74.82
2023-02-12T17:56:03.208Z,74.96
2023-02-12T17:58:38.563Z,75.29
2023-02-12T18:01:13.967Z,75.49
2023-02-12T18:03:46.781Z,75.64
2023-02-12T18:06:25.680Z,75.86
2023-02-12T18:08:59.376Z,75.80
2023-02-12T18:11:33.049Z,75.92
2023-02-12T18:14:05.915Z,76.18
2023-02-12T18:16:38.655Z,76.23
2023-02-12T18:19:11.291Z,76.31
2023-02-12T18:21:44.104Z,76.45
2023-02-12T18:24:16.529Z,76.75
2023-02-12T18:26:49.049Z,76.73
2023-02-12T18:29:21.604Z,76.92
2023-02-12T18:31:55.154Z,77.05
2023-02-12T18:34:27.724Z,77.03
2023-02-12T18:36:59.996Z,77.30
2023-02-12T18:39:32.505Z,77.56
2023-02-12T18:42:05.469Z,77.65
2023-02-12T18:44:37.743Z,77.50
2023-02-12T18:47:10.372Z,77.47
2023-02-12T18:49:42.511Z,77.54
2023-02-12T18:52:15.064Z,77.90
2023-02-12T18:54:47.345Z,78.00
2023-02-12T18:57:19.716Z,78.04
2023-02-12T18:59:51.939Z,78.35
2023-02-12T19:02:24.248Z,78.46
2023-02-12T19:04:56.759Z,78.75
2023-02-12T19:07:29.078Z,78.86
2023-02-12T19:10:01.367Z,79.05
2023-02-12T19:12:33.692Z,79.23
2023-02-12T19:15:07.180Z,79.18
2023-02-12T19:17:39.521Z,79.31
2023-02-12T19:20:14.759Z,79.77
2023-02-12T19:22:47.316Z,79.72
2023-02-12T19:25:20.465Z,79.88
2023-02-12T19:27:53.296Z,80.09
2023-02-12T19:30:25.741Z,80.39
2023-02-12T19:32:58.384Z,80.59
2023-02-12T19:35:30.608Z,80.73
2023-02-12T19:38:03.120Z,80.76
2023-02-12T19:40:35.365Z,80.91
2023-02-12T19:43:07.611Z,81.15
2023-02-12T19:45:39.879Z,81.42
2023-02-12T19:48:12.076Z,81.32
2023-02-12T19:50:49.282Z,81.59
2023-02-12T19:53:21.624Z,81.86
2023-02-12T19:55:54.257Z,82.13
2023-02-12T19:58:26.418Z,82.53
2023-02-12T20:00:58.707Z,82.83
2023-02-12T20:03:30.998Z,83.34
2023-02-12T20:06:09.684Z,83.18
2023-02-12T20:08:43.222Z,83.68
2023-02-12T20:11:20.247Z,83.63
2023-02-12T20:13:52.962Z,83.89
2023-02-12T20:16:31.187Z,83.46
2023-02-12T20:19:07.112Z,84.10
2023-02-12T20:21:39.812Z,83.87
2023-02-12T20:24:12.335Z,83.98
2023-02-12T20:26:44.685Z,83.95
2023-02-12T20:29:19.023Z,83.60
2023-02-12T20:31:51.790Z,83.66
2023-02-12T20:34:24.280Z,84.03
2023-02-12T20:36:56.563Z,83.98
2023-02-12T20:39:28.908Z,84.34
2023-02-12T20:42:01.104Z,84.44
2023-02-12T20:44:34.224Z,84.58
2023-02-12T20:47:06.982Z,84.91
2023-02-12T20:49:39.777Z,84.81
2023-02-12T20:52:12.232Z,85.03
2023-02-12T20:54:46.395Z,85.05
2023-02-12T20:57:20.311Z,84.98
2023-02-12T20:59:52.915Z,84.95
2023-02-12T21:02:25.407Z,85.21
2023-02-12T21:04:57.805Z,85.54
2023-02-12T21:07:30.106Z,85.54
2023-02-12T21:10:05.901Z,85.84
2023-02-12T21:12:38.152Z,85.74
2023-02-12T21:15:14.732Z,86.23
2023-02-12T21:17:46.985Z,86.18
2023-02-12T21:20:19.632Z,86.88
2023-02-12T21:22:51.989Z,86.74
2023-02-12T21:25:24.746Z,86.84
2023-02-12T21:28:01.417Z,87.05
2023-02-12T21:30:34.058Z,87.87
2023-02-12T21:33:06.633Z,88.29
2023-02-12T21:35:41.954Z,88.30
2023-02-12T21:38:14.442Z,88.94
2023-02-12T21:40:47.027Z,88.41
2023-02-12T21:43:19.462Z,88.16
2023-02-12T21:45:56.362Z,88.00
2023-02-12T21:48:29.382Z,87.98
2023-02-12T21:51:02.681Z,89.08
2023-02-12T21:53:35.235Z,89.12
2023-02-12T21:56:08.588Z,88.96
2023-02-12T21:58:41.272Z,90.10
2023-02-12T22:01:19.318Z,89.92
2023-02-12T22:03:53.328Z,90.34
2023-02-12T22:06:29.054Z,90.96
2023-02-12T22:09:06.622Z,90.25
2023-02-12T22:11:41.915Z,90.42
2023-02-12T22:14:19.344Z,90.35
2023-02-12T22:16:55.627Z,90.85
2023-02-12T22:19:35.390Z,91.65
2023-02-12T22:22:08.244Z,91.27
2023-02-12T22:24:45.795Z,91.04
2023-02-12T22:27:20.497Z,91.45
2023-02-12T22:29:53.430Z,91.67
2023-02-12T22:32:29.122Z,91.73
2023-02-12T22:35:01.412Z,92.02
2023-02-12T22:37:33.825Z,91.65
2023-02-12T22:40:07.103Z,92.32
2023-02-12T22:42:39.322Z,91.95
2023-02-12T22:45:12.401Z,91.73
2023-02-12T22:47:44.596Z,93.36
2023-02-12T22:50:20.272Z,93.23
2023-02-12T22:52:52.809Z,93.13
2023-02-12T22:55:26.334Z,93.20
2023-02-12T22:57:59.673Z,93.16
2023-02-12T23:00:32.104Z,93.22
2023-02-12T23:03:04.868Z,92.62
2023-02-12T23:05:39.908Z,93.02
2023-02-12T23:08:12.107Z,92.72
2023-02-12T23:10:45.221Z,93.17
2023-02-12T23:13:28.977Z,93.24
2023-02-12T23:16:02.101Z,93.05
2023-02-12T23:18:35.436Z,92.74
2023-02-12T23:21:12.281Z,92.72
2023-02-12T23:23:44.470Z,92.36
2023-02-12T23:26:19.378Z,92.61
2023-02-12T23:28:59.389Z,93.55
2023-02-12T23:31:31.842Z,92.90
2023-02-12T23:34:04.400Z,92.75
2023-02-12T23:36:42.031Z,93.44
2023-02-12T23:39:15.505Z,93.63
2023-02-12T23:41:47.788Z,93.25
2023-02-12T23:44:20.063Z,93.30
2023-02-12T23:46:54.013Z,92.87
2023-02-12T23:49:26.696Z,92.87
2023-02-12T23:51:58.955Z,93.18
2023-02-12T23:54:32.016Z,93.08
2023-02-12T23:57:04.354Z,93.51
2023-02-12T23:59:37.053Z,93.72
